createdAt,value
2023-02-27T00:01:50.364Z,1.60
2023-02-27T00:04:19.072Z,1.73
2023-02-27T00:06:51.093Z,1.70
2023-02-27T00:09:19.364Z,1.77
2023-02-27T00:11:49.478Z,1.70
2023-02-27T00:14:21.290Z,2.10
2023-02-27T00:16:54.947Z,1.53
2023-02-27T00:19:23.380Z,1.80
2023-02-27T00:21:53.156Z,1.87
2023-02-27T00:24:24.778Z,1.63
2023-02-27T00:26:53.279Z,1.63
2023-02-27T00:29:21.939Z,1.67
2023-02-27T00:31:53.426Z,1.50
2023-02-27T00:34:21.700Z,1.83
2023-02-27T00:36:49.627Z,1.73
2023-02-27T00:39:21.894Z,1.90
2023-02-27T00:41:56.043Z,1.10
2023-02-27T00:44:24.082Z,1.60
2023-02-27T00:46:52.211Z,1.77
2023-02-27T00:49:22.957Z,1.57
2023-02-27T00:51:51.012Z,1.43
2023-02-27T00:54:19.396Z,2.07
2023-02-27T00:56:54.907Z,1.40
2023-02-27T00:59:23.137Z,1.47
2023-02-27T01:01:53.936Z,1.67
2023-02-27T01:04:25.051Z,1.30
2023-02-27T01:06:54.570Z,2.00
2023-02-27T01:09:24.972Z,1.37
2023-02-27T01:11:57.946Z,1.60
2023-02-27T01:14:26.069Z,1.60
2023-02-27T01:16:54.149Z,1.60
2023-02-27T01:19:22.321Z,1.90
2023-02-27T01:21:50.490Z,1.53
2023-02-27T01:24:22.814Z,1.80
2023-02-27T01:26:53.663Z,1.60
2023-02-27T01:29:23.427Z,1.93
2023-02-27T01:31:52.752Z,1.67
2023-02-27T01:34:23.427Z,1.80
2023-02-27T01:36:54.254Z,1.30
2023-02-27T01:39:22.493Z,1.60
2023-02-27T01:41:53.961Z,1.90
2023-02-27T01:44:29.161Z,1.60
2023-02-27T01:46:59.237Z,1.43
2023-02-27T01:49:30.804Z,1.90
2023-02-27T01:52:03.163Z,1.70
2023-02-27T01:54:32.276Z,1.70
2023-02-27T01:57:02.654Z,1.83
2023-02-27T01:59:34.614Z,1.93
2023-02-27T02:02:04.233Z,1.60
2023-02-27T02:04:36.652Z,1.47
2023-02-27T02:07:15.082Z,1.50
2023-02-27T02:09:46.116Z,1.80
2023-02-27T02:12:25.743Z,1.27
2023-02-27T02:14:55.981Z,1.20
2023-02-27T02:17:27.485Z,1.43
2023-02-27T02:20:12.064Z,1.70
2023-02-27T02:22:59.827Z,1.30
2023-02-27T02:25:39.331Z,1.50
2023-02-27T02:28:17.449Z,2.13
2023-02-27T02:31:00.562Z,1.70
2023-02-27T02:33:51.914Z,1.90
2023-02-27T02:36:34.829Z,1.70
2023-02-27T02:39:09.984Z,1.50
2023-02-27T02:41:46.904Z,1.73
2023-02-27T02:44:24.489Z,1.73
2023-02-27T02:47:01.336Z,1.60
2023-02-27T02:49:31.609Z,1.70
2023-02-27T02:52:01.758Z,1.67
2023-02-27T02:54:35.110Z,1.97
2023-02-27T02:57:08.026Z,1.57
2023-02-27T02:59:38.179Z,1.73
2023-02-27T03:02:08.171Z,2.10
2023-02-27T03:04:39.481Z,1.37
2023-02-27T03:07:11.016Z,1.70
2023-02-27T03:09:42.287Z,1.77
2023-02-27T03:12:21.711Z,1.80
2023-02-27T03:14:55.713Z,1.60
2023-02-27T03:17:28.829Z,1.63
2023-02-27T03:19:59.281Z,1.60
2023-02-27T03:22:30.404Z,1.63
2023-02-27T03:25:08.357Z,1.63
2023-02-27T03:27:39.939Z,1.37
2023-02-27T03:30:10.989Z,1.87
2023-02-27T03:32:44.384Z,1.63
2023-02-27T03:35:27.431Z,1.43
2023-02-27T03:37:59.120Z,1.77
2023-02-27T03:40:33.008Z,1.50
2023-02-27T03:43:04.441Z,2.27
2023-02-27T03:45:48.603Z,1.53
2023-02-27T03:48:19.925Z,1.50
2023-02-27T03:50:51.360Z,1.80
2023-02-27T03:53:28.467Z,1.67
2023-02-27T03:56:02.159Z,1.50
2023-02-27T03:58:33.531Z,1.70
2023-02-27T04:01:02.164Z,1.60
2023-02-27T04:03:35.314Z,1.87
2023-02-27T04:06:23.370Z,1.50
2023-02-27T04:08:56.864Z,1.40
2023-02-27T04:11:32.871Z,1.80
2023-02-27T04:14:21.333Z,1.70
2023-02-27T04:17:01.992Z,1.47
2023-02-27T04:19:40.211Z,1.83
2023-02-27T04:22:20.338Z,1.83
2023-02-27T04:24:56.530Z,1.70
2023-02-27T04:27:32.558Z,1.70
2023-02-27T04:30:05.466Z,1.83
2023-02-27T04:32:36.948Z,1.70
2023-02-27T04:35:07.544Z,1.50
2023-02-27T04:37:39.756Z,1.80
2023-02-27T04:40:10.370Z,1.60
2023-02-27T04:42:57.593Z,1.70
2023-02-27T04:45:27.073Z,1.47
2023-02-27T04:47:58.250Z,2.03
2023-02-27T04:50:28.125Z,2.40
2023-02-27T04:52:59.057Z,2.30
2023-02-27T04:55:28.444Z,1.70
2023-02-27T04:57:59.802Z,1.70
2023-02-27T05:00:31.404Z,1.80
2023-02-27T05:03:01.097Z,2.10
2023-02-27T05:05:31.341Z,1.67
2023-02-27T05:08:00.792Z,1.70
2023-02-27T05:10:31.577Z,1.73
2023-02-27T05:13:03.720Z,1.40
2023-02-27T05:15:32.883Z,1.40
2023-02-27T05:18:04.762Z,1.67
2023-02-27T05:20:34.490Z,1.50
2023-02-27T05:23:06.625Z,1.53
2023-02-27T05:25:38.511Z,1.50
2023-02-27T05:28:10.347Z,1.83
2023-02-27T05:30:41.501Z,1.80
2023-02-27T05:33:21.714Z,2.17
2023-02-27T05:36:11.897Z,1.70
2023-02-27T05:38:51.841Z,1.70
2023-02-27T05:41:22.902Z,1.57
2023-02-27T05:43:55.018Z,1.67
2023-02-27T05:46:25.805Z,1.50
2023-02-27T05:48:55.777Z,1.67
2023-02-27T05:51:26.836Z,1.40
2023-02-27T05:53:58.764Z,1.73
2023-02-27T05:56:28.228Z,1.53
2023-02-27T05:59:01.559Z,2.00
2023-02-27T06:01:29.549Z,1.90
2023-02-27T06:03:58.261Z,1.70
2023-02-27T06:06:26.750Z,1.70
2023-02-27T06:08:55.330Z,1.60
2023-02-27T06:11:23.695Z,2.40
2023-02-27T06:13:51.799Z,2.20
2023-02-27T06:16:24.397Z,1.83
2023-02-27T06:18:52.737Z,2.27
2023-02-27T06:21:21.376Z,1.90
2023-02-27T06:23:50.726Z,2.10
2023-02-27T06:26:21.469Z,1.87
2023-02-27T06:28:52.620Z,2.00
2023-02-27T06:31:25.663Z,2.30
2023-02-27T06:33:55.679Z,1.97
2023-02-27T06:36:24.037Z,1.57
2023-02-27T06:38:52.518Z,2.17
2023-02-27T06:41:21.028Z,2.03
2023-02-27T06:43:51.489Z,1.73
2023-02-27T06:46:20.711Z,1.90
2023-02-27T06:48:53.886Z,1.90
2023-02-27T06:51:21.889Z,2.47
2023-02-27T06:53:52.779Z,2.17
2023-02-27T06:56:21.533Z,2.00
2023-02-27T06:58:52.785Z,1.73
2023-02-27T07:01:21.122Z,1.47
2023-02-27T07:03:51.023Z,2.07
2023-02-27T07:06:21.637Z,2.40
2023-02-27T07:09:09.318Z,1.80
2023-02-27T07:11:37.097Z,2.27
2023-02-27T07:14:05.499Z,1.77
2023-02-27T07:16:33.512Z,1.90
2023-02-27T07:19:03.846Z,1.93
2023-02-27T07:21:34.149Z,1.97
2023-02-27T07:24:02.984Z,2.20
2023-02-27T07:26:30.738Z,2.07
2023-02-27T07:28:59.103Z,1.67
2023-02-27T07:31:28.965Z,2.20
2023-02-27T07:33:57.842Z,2.00
2023-02-27T07:36:28.641Z,2.17
2023-02-27T07:38:59.515Z,2.00
2023-02-27T07:41:30.602Z,2.00
2023-02-27T07:44:01.272Z,2.10
2023-02-27T07:46:29.700Z,1.60
2023-02-27T07:48:57.907Z,1.93
2023-02-27T07:51:27.261Z,2.17
2023-02-27T07:54:03.357Z,1.73
2023-02-27T07:56:31.574Z,1.67
2023-02-27T07:59:00.097Z,1.70
2023-02-27T08:01:28.568Z,1.63
2023-02-27T08:04:02.314Z,1.97
2023-02-27T08:06:30.491Z,2.07
2023-02-27T08:09:01.215Z,1.80
2023-02-27T08:11:30.663Z,2.13
2023-02-27T08:14:00.971Z,1.80
2023-02-27T08:16:30.794Z,1.73
2023-02-27T08:18:59.818Z,2.10
2023-02-27T08:21:28.446Z,2.10
2023-02-27T08:23:56.956Z,2.10
2023-02-27T08:26:25.570Z,1.93
2023-02-27T08:28:55.595Z,1.83
2023-02-27T08:31:26.763Z,2.07
2023-02-27T08:34:04.570Z,2.30
2023-02-27T08:36:39.843Z,2.47
2023-02-27T08:39:19.282Z,1.93
2023-02-27T08:41:55.030Z,1.60
2023-02-27T08:44:25.741Z,1.50
2023-02-27T08:50:19.768Z,1.70
2023-02-27T08:52:58.389Z,2.03
2023-02-27T08:55:32.500Z,1.80
2023-02-27T08:58:00.638Z,1.60
2023-02-27T09:00:33.642Z,2.03
2023-02-27T09:03:01.914Z,1.80
2023-02-27T09:05:35.413Z,2.00
2023-02-27T09:08:03.864Z,2.47
2023-02-27T09:10:32.877Z,2.07
2023-02-27T09:13:00.671Z,2.00
2023-02-27T09:15:30.227Z,2.20
2023-02-27T09:18:02.887Z,2.23
2023-02-27T09:20:31.821Z,2.10
2023-02-27T09:23:00.219Z,1.90
2023-02-27T09:25:28.282Z,2.17
2023-02-27T09:27:56.630Z,1.97
2023-02-27T09:30:27.305Z,1.93
2023-02-27T09:32:55.518Z,2.03
2023-02-27T09:35:28.105Z,1.90
2023-02-27T09:37:58.054Z,2.03
2023-02-27T09:40:27.133Z,2.60
2023-02-27T09:42:58.079Z,1.83
2023-02-27T09:45:26.872Z,2.07
2023-02-27T09:47:56.048Z,1.20
2023-02-27T09:50:32.806Z,2.00
2023-02-27T09:53:01.881Z,2.13
2023-02-27T09:55:32.107Z,2.40
2023-02-27T09:58:04.574Z,2.47
2023-02-27T10:00:40.863Z,2.00
2023-02-27T10:03:28.709Z,2.23
2023-02-27T10:06:07.094Z,2.17
2023-02-27T10:08:37.835Z,1.83
2023-02-27T10:11:08.518Z,2.20
2023-02-27T10:13:42.592Z,2.10
2023-02-27T10:16:12.056Z,1.97
2023-02-27T10:19:03.700Z,1.83
2023-02-27T10:21:35.341Z,2.00
2023-02-27T10:24:07.920Z,1.80
2023-02-27T10:26:38.491Z,2.07
2023-02-27T10:29:39.694Z,1.83
2023-02-27T10:32:12.526Z,2.00
2023-02-27T10:34:41.727Z,1.73
2023-02-27T10:37:23.445Z,1.80
2023-02-27T10:39:55.074Z,1.97
2023-02-27T10:42:24.701Z,1.87
2023-02-27T10:44:54.019Z,1.90
2023-02-27T10:47:23.086Z,1.97
2023-02-27T10:49:54.415Z,1.67
2023-02-27T10:52:25.627Z,2.00
2023-02-27T10:54:54.596Z,2.10
2023-02-27T10:57:27.766Z,2.23
2023-02-27T10:59:57.845Z,2.20
2023-02-27T11:02:27.612Z,1.87
2023-02-27T11:04:57.942Z,2.10
2023-02-27T11:07:30.100Z,2.00
2023-02-27T11:10:02.843Z,2.00
2023-02-27T11:12:31.655Z,2.07
2023-02-27T11:15:01.268Z,2.17
2023-02-27T11:17:29.830Z,2.33
2023-02-27T11:19:58.819Z,1.90
2023-02-27T11:22:28.477Z,2.43
2023-02-27T11:27:52.021Z,1.93
2023-02-27T11:30:23.549Z,2.20
2023-02-27T11:32:52.046Z,2.40
2023-02-27T11:35:26.797Z,2.40
2023-02-27T11:37:56.110Z,2.00
2023-02-27T11:40:26.528Z,2.13
2023-02-27T11:42:56.950Z,2.00
2023-02-27T11:46:20.351Z,2.03
2023-02-27T11:48:19.335Z,2.00
2023-02-27T11:50:55.473Z,2.43
2023-02-27T11:53:36.111Z,2.10
2023-02-27T11:56:05.050Z,2.20
2023-02-27T11:58:42.514Z,1.97
2023-02-27T12:01:16.487Z,2.10
2023-02-27T12:03:48.218Z,2.20
2023-02-27T12:06:18.608Z,2.00
2023-02-27T12:08:48.975Z,1.50
2023-02-27T12:11:21.099Z,2.10
2023-02-27T12:13:52.074Z,2.37
2023-02-27T12:16:22.197Z,2.00
2023-02-27T12:18:53.380Z,2.63
2023-02-27T12:21:22.552Z,2.10
2023-02-27T12:23:52.440Z,2.10
2023-02-27T12:26:22.957Z,2.57
2023-02-27T12:28:56.553Z,2.20
2023-02-27T12:31:32.844Z,2.10
2023-02-27T12:34:03.461Z,2.20
2023-02-27T12:36:31.376Z,2.40
2023-02-27T12:38:59.937Z,2.27
2023-02-27T12:41:33.382Z,2.10
2023-02-27T12:44:12.536Z,2.00
2023-02-27T12:46:45.811Z,1.93
2023-02-27T12:49:39.816Z,2.80
2023-02-27T12:52:14.979Z,2.40
2023-02-27T12:54:48.490Z,2.27
2023-02-27T12:57:22.029Z,2.17
2023-02-27T12:59:59.246Z,2.20
2023-02-27T13:02:31.574Z,2.57
2023-02-27T13:05:04.462Z,2.57
2023-02-27T13:07:35.999Z,2.67
2023-02-27T13:10:05.909Z,2.90
2023-02-27T13:12:37.996Z,2.77
2023-02-27T13:15:12.497Z,2.47
2023-02-27T13:17:45.960Z,2.70
2023-02-27T13:20:26.072Z,2.20
2023-02-27T13:22:56.732Z,2.80
2023-02-27T13:25:25.147Z,2.33
2023-02-27T13:27:54.445Z,2.17
2023-02-27T13:30:25.605Z,2.20
2023-02-27T13:32:56.433Z,2.33
2023-02-27T13:35:28.924Z,2.60
2023-02-27T13:37:57.744Z,2.33
2023-02-27T13:40:30.158Z,2.20
2023-02-27T13:42:58.925Z,2.80
2023-02-27T13:45:42.347Z,2.80
2023-02-27T13:48:24.827Z,2.70
2023-02-27T13:50:54.403Z,2.50
2023-02-27T13:53:24.713Z,2.47
2023-02-27T13:55:54.691Z,2.17
2023-02-27T13:58:25.078Z,2.70
2023-02-27T14:00:56.306Z,2.67
2023-02-27T14:03:25.858Z,2.60
2023-02-27T14:05:57.003Z,2.87
2023-02-27T14:08:25.985Z,2.37
2023-02-27T14:10:56.806Z,2.60
2023-02-27T14:13:34.886Z,2.60
2023-02-27T14:16:02.710Z,2.97
2023-02-27T14:18:45.221Z,3.13
2023-02-27T14:21:14.321Z,2.37
2023-02-27T14:23:42.971Z,2.37
2023-02-27T14:26:15.662Z,2.60
2023-02-27T14:28:47.283Z,2.23
2023-02-27T14:31:21.173Z,2.30
2023-02-27T14:33:50.511Z,2.30
2023-02-27T14:36:21.074Z,2.50
2023-02-27T14:38:49.422Z,2.27
2023-02-27T14:41:29.545Z,1.97
2023-02-27T14:43:58.281Z,2.27
2023-02-27T14:46:27.425Z,2.77
2023-02-27T14:48:56.115Z,2.43
2023-02-27T14:51:26.559Z,2.73
2023-02-27T14:54:03.195Z,2.73
2023-02-27T14:56:31.273Z,2.20
2023-02-27T14:59:04.401Z,2.50
2023-02-27T15:01:36.304Z,2.27
2023-02-27T15:04:05.339Z,3.10
2023-02-27T15:06:36.457Z,2.30
2023-02-27T15:09:04.804Z,1.90
2023-02-27T15:11:32.509Z,2.50
2023-02-27T15:14:01.543Z,3.00
2023-02-27T15:16:31.736Z,2.60
2023-02-27T15:19:01.098Z,2.20
2023-02-27T15:21:30.955Z,2.60
2023-02-27T15:24:01.039Z,2.37
2023-02-27T15:26:31.321Z,2.50
2023-02-27T15:28:59.958Z,2.10
2023-02-27T15:31:31.251Z,2.77
2023-02-27T15:34:02.595Z,2.80
2023-02-27T15:36:31.643Z,2.40
2023-02-27T15:39:09.579Z,2.60
2023-02-27T15:41:37.325Z,2.60
2023-02-27T15:44:05.513Z,2.20
2023-02-27T15:46:33.464Z,2.53
2023-02-27T15:49:01.328Z,2.63
2023-02-27T15:51:29.798Z,2.60
2023-02-27T15:53:59.476Z,2.73
2023-02-27T15:56:29.656Z,2.83
2023-02-27T15:59:00.997Z,2.93
2023-02-27T16:01:30.744Z,2.47
2023-02-27T16:04:00.058Z,2.80
2023-02-27T16:06:29.359Z,2.60
2023-02-27T16:08:58.674Z,2.70
2023-02-27T16:11:28.596Z,2.73
2023-02-27T16:13:57.592Z,2.40
2023-02-27T16:16:30.561Z,2.77
2023-02-27T16:18:59.426Z,2.13
2023-02-27T16:21:28.374Z,2.50
2023-02-27T16:23:56.103Z,2.63
2023-02-27T16:26:28.188Z,2.40
2023-02-27T16:28:59.799Z,2.53
2023-02-27T16:31:29.023Z,2.43
2023-02-27T16:33:57.943Z,2.40
2023-02-27T16:36:26.851Z,2.43
2023-02-27T16:38:54.724Z,2.60
2023-02-27T16:41:22.993Z,2.43
2023-02-27T16:43:51.350Z,2.50
2023-02-27T16:46:21.130Z,2.13
2023-02-27T16:48:50.487Z,2.40
2023-02-27T16:51:19.318Z,2.33
2023-02-27T16:53:48.583Z,2.53
2023-02-27T16:56:23.583Z,2.27
2023-02-27T16:58:54.301Z,2.10
2023-02-27T17:01:23.495Z,2.03
2023-02-27T17:03:53.077Z,2.37
2023-02-27T17:06:20.811Z,2.77
2023-02-27T17:08:48.554Z,2.20
2023-02-27T17:11:16.918Z,2.20
2023-02-27T17:13:45.158Z,2.83
2023-02-27T17:16:12.929Z,2.03
2023-02-27T17:18:41.903Z,2.63
2023-02-27T17:21:09.525Z,2.43
2023-02-27T17:23:37.169Z,1.87
2023-02-27T17:26:05.560Z,2.20
2023-02-27T17:28:33.557Z,2.50
2023-02-27T17:31:02.628Z,2.63
2023-02-27T17:33:31.883Z,2.30
2023-02-27T17:36:03.724Z,2.10
2023-02-27T17:38:31.647Z,2.83
2023-02-27T17:40:59.424Z,2.50
2023-02-27T17:43:27.459Z,1.90
2023-02-27T17:45:55.084Z,2.40
2023-02-27T17:48:22.905Z,2.67
2023-02-27T17:50:50.620Z,2.40
2023-02-27T17:53:19.881Z,2.70
2023-02-27T17:55:47.597Z,2.53
2023-02-27T17:58:16.899Z,2.80
2023-02-27T18:00:44.679Z,2.47
2023-02-27T18:03:12.645Z,2.53
2023-02-27T18:05:40.249Z,1.93
2023-02-27T18:08:07.921Z,3.00
2023-02-27T18:10:37.137Z,2.47
2023-02-27T18:13:05.571Z,3.27
2023-02-27T18:15:33.398Z,2.60
2023-02-27T18:18:01.165Z,2.80
2023-02-27T18:20:28.918Z,2.53
2023-02-27T18:22:56.638Z,2.50
2023-02-27T18:25:24.468Z,2.50
2023-02-27T18:27:54.870Z,2.57
2023-02-27T18:30:22.648Z,2.80
2023-02-27T18:32:50.545Z,3.13
2023-02-27T18:35:18.488Z,2.80
2023-02-27T18:37:46.362Z,2.70
2023-02-27T18:40:15.262Z,2.13
2023-02-27T18:42:43.379Z,2.77
2023-02-27T18:45:13.456Z,2.87
2023-02-27T18:47:41.139Z,3.03
2023-02-27T18:50:09.201Z,3.17
2023-02-27T18:52:37.341Z,2.83
2023-02-27T18:55:05.310Z,2.73
2023-02-27T18:57:33.007Z,2.87
2023-02-27T19:00:01.843Z,2.10
2023-02-27T19:02:30.868Z,2.87
2023-02-27T19:04:58.703Z,2.97
2023-02-27T19:07:26.403Z,2.50
2023-02-27T19:09:54.111Z,2.23
2023-02-27T19:12:21.895Z,2.70
2023-02-27T19:14:49.761Z,2.93
2023-02-27T19:17:17.509Z,3.07
2023-02-27T19:19:47.112Z,3.03
2023-02-27T19:22:15.154Z,2.63
2023-02-27T19:24:42.799Z,2.73
2023-02-27T19:27:10.423Z,2.97
2023-02-27T19:29:38.360Z,2.10
2023-02-27T19:32:07.552Z,2.80
2023-02-27T19:34:35.273Z,3.57
2023-02-27T19:37:04.222Z,2.60
2023-02-27T19:39:31.905Z,2.87
2023-02-27T19:41:59.560Z,2.57
2023-02-27T19:44:27.587Z,2.67
2023-02-27T19:46:55.277Z,2.20
2023-02-27T19:49:23.176Z,2.57
2023-02-27T19:51:51.008Z,2.80
2023-02-27T19:54:20.010Z,2.30
2023-02-27T19:56:47.791Z,2.60
2023-02-27T19:59:15.786Z,3.10
2023-02-27T20:01:43.548Z,2.10
2023-02-27T20:04:12.630Z,2.47
2023-02-27T20:06:44.099Z,2.77
2023-02-27T20:09:14.520Z,2.43
2023-02-27T20:11:44.122Z,3.23
2023-02-27T20:14:12.061Z,2.67
2023-02-27T20:16:40.929Z,2.77
2023-02-27T20:19:10.109Z,3.37
2023-02-27T20:21:37.798Z,3.60
2023-02-27T20:24:05.730Z,2.77
2023-02-27T20:26:34.549Z,2.57
2023-02-27T20:29:06.181Z,3.43
2023-02-27T20:31:35.714Z,3.40
2023-02-27T20:34:05.954Z,2.63
2023-02-27T20:36:34.156Z,2.33
2023-02-27T20:39:02.247Z,2.73
2023-02-27T20:41:30.917Z,2.60
2023-02-27T20:43:58.846Z,2.40
2023-02-27T20:46:28.487Z,2.60
2023-02-27T20:48:56.429Z,2.87
2023-02-27T20:51:25.694Z,2.60
2023-02-27T20:53:54.677Z,2.50
2023-02-27T20:56:26.128Z,2.93
2023-02-27T20:58:54.021Z,2.67
2023-02-27T21:01:21.978Z,2.83
2023-02-27T21:03:51.387Z,2.20
2023-02-27T21:06:19.862Z,2.63
2023-02-27T21:08:48.720Z,2.47
2023-02-27T21:11:18.105Z,2.60
2023-02-27T21:13:46.879Z,2.70
2023-02-27T21:16:15.640Z,2.53
2023-02-27T21:18:43.687Z,2.73
2023-02-27T21:21:14.551Z,2.47
2023-02-27T21:23:42.316Z,2.80
2023-02-27T21:26:10.422Z,2.90
2023-02-27T21:28:43.467Z,3.13
2023-02-27T21:31:11.105Z,2.57
2023-02-27T21:33:38.946Z,3.03
2023-02-27T21:36:07.281Z,2.87
2023-02-27T21:38:36.298Z,3.00
2023-02-27T21:41:05.640Z,3.13
2023-02-27T21:43:33.357Z,2.77
2023-02-27T21:46:04.835Z,3.33
2023-02-27T21:48:34.628Z,3.30
2023-02-27T21:51:02.390Z,3.70
2023-02-27T21:53:30.310Z,3.07
2023-02-27T21:56:04.911Z,3.20
2023-02-27T21:58:33.013Z,3.00
2023-02-27T22:01:01.061Z,2.93
2023-02-27T22:03:34.132Z,2.93
2023-02-27T22:06:02.444Z,2.90
2023-02-27T22:08:30.124Z,2.70
2023-02-27T22:10:58.430Z,3.37
2023-02-27T22:13:27.824Z,2.77
2023-02-27T22:15:55.585Z,3.37
2023-02-27T22:18:23.512Z,3.17
2023-02-27T22:20:51.154Z,2.67
2023-02-27T22:23:18.843Z,2.93
2023-02-27T22:25:47.265Z,2.87
2023-02-27T22:30:49.170Z,3.10
2023-02-27T22:33:17.269Z,3.87
2023-02-27T22:35:45.692Z,2.73
2023-02-27T22:38:13.982Z,2.67
2023-02-27T22:40:42.378Z,2.90
2023-02-27T22:43:11.143Z,3.70
2023-02-27T22:45:41.633Z,3.70
2023-02-27T22:48:10.729Z,3.13
2023-02-27T22:50:38.370Z,2.90
2023-02-27T22:53:06.038Z,2.93
2023-02-27T22:55:33.686Z,3.20
2023-02-27T22:58:01.352Z,2.93
2023-02-27T23:00:28.991Z,3.97
2023-02-27T23:02:56.694Z,3.10
2023-02-27T23:05:25.724Z,3.43
2023-02-27T23:07:53.387Z,3.27
2023-02-27T23:10:21.009Z,3.57
2023-02-27T23:12:48.819Z,2.93
2023-02-27T23:15:16.871Z,3.23
2023-02-27T23:17:56.537Z,2.87
2023-02-27T23:20:27.382Z,3.80
2023-02-27T23:22:55.224Z,3.70
2023-02-27T23:25:22.941Z,2.87
2023-02-27T23:27:50.880Z,2.97
2023-02-27T23:30:18.946Z,3.17
2023-02-27T23:32:46.894Z,2.80
2023-02-27T23:35:16.491Z,3.53
2023-02-27T23:37:45.698Z,3.93
2023-02-27T23:40:13.599Z,3.27
2023-02-27T23:42:41.201Z,2.67
2023-02-27T23:45:12.232Z,3.10
2023-02-27T23:47:42.952Z,2.93
2023-02-27T23:50:11.323Z,3.47
2023-02-27T23:52:39.034Z,3.30
2023-02-27T23:55:09.006Z,2.67
2023-02-27T23:57:36.660Z,3.73
